sensor_id;sensor_type;location;lat;lon;timestamp;P1;durP1;ratioP1;P2;durP2;ratioP2
29006;SDS011;16104;48.642;9.008;2022-12-07T00:04:28;15.18;;;6.63;;
29006;SDS011;16104;48.642;9.008;2022-12-07T00:09:24;12.05;;;7.50;;
29006;SDS011;16104;48.642;9.008;2022-12-07T00:14:20;8.82;;;6.30;;
29006;SDS011;16104;48.642;9.008;2022-12-07T00:19:16;12.43;;;6.55;;
29006;SDS011;16104;48.642;9.008;2022-12-07T00:24:11;9.32;;;6.00;;
29006;SDS011;16104;48.642;9.008;2022-12-07T00:34:16;9.88;;;6.03;;
29006;SDS011;16104;48.642;9.008;2022-12-07T00:39:14;10.35;;;6.03;;
29006;SDS011;16104;48.642;9.008;2022-12-07T00:44:10;7.60;;;5.80;;
29006;SDS011;16104;48.642;9.008;2022-12-07T00:49:05;8.38;;;5.40;;
29006;SDS011;16104;48.642;9.008;2022-12-07T00:54:01;8.73;;;5.93;;
29006;SDS011;16104;48.642;9.008;2022-12-07T00:58:57;9.55;;;6.07;;
29006;SDS011;16104;48.642;9.008;2022-12-07T02:05:00;13.20;;;9.13;;
29006;SDS011;16104;48.642;9.008;2022-12-07T02:10:11;12.75;;;9.15;;
29006;SDS011;16104;48.642;9.008;2022-12-07T02:15:09;11.48;;;8.82;;
29006;SDS011;16104;48.642;9.008;2022-12-07T03:00:52;11.27;;;8.07;;
29006;SDS011;16104;48.642;9.008;2022-12-07T03:06:13;11.57;;;8.73;;
29006;SDS011;16104;48.642;9.008;2022-12-07T03:11:14;12.30;;;8.45;;
29006;SDS011;16104;48.642;9.008;2022-12-07T04:03:54;10.35;;;6.95;;
29006;SDS011;16104;48.642;9.008;2022-12-07T04:08:50;12.60;;;8.55;;
29006;SDS011;16104;48.642;9.008;2022-12-07T04:13:45;11.93;;;8.27;;
29006;SDS011;16104;48.642;9.008;2022-12-07T04:19:00;12.23;;;8.43;;
29006;SDS011;16104;48.642;9.008;2022-12-07T04:23:55;13.75;;;8.82;;
29006;SDS011;16104;48.642;9.008;2022-12-07T04:28:51;12.07;;;8.15;;
29006;SDS011;16104;48.642;9.008;2022-12-07T04:33:46;12.07;;;7.22;;
29006;SDS011;16104;48.642;9.008;2022-12-07T04:38:42;12.35;;;8.52;;
29006;SDS011;16104;48.642;9.008;2022-12-07T04:43:37;10.48;;;8.13;;
29006;SDS011;16104;48.642;9.008;2022-12-07T04:48:33;11.50;;;8.60;;
29006;SDS011;16104;48.642;9.008;2022-12-07T04:53:28;12.02;;;8.27;;
29006;SDS011;16104;48.642;9.008;2022-12-07T04:58:24;10.38;;;7.88;;
29006;SDS011;16104;48.642;9.008;2022-12-07T05:03:19;9.23;;;6.90;;
29006;SDS011;16104;48.642;9.008;2022-12-07T05:08:15;10.38;;;7.10;;
29006;SDS011;16104;48.642;9.008;2022-12-07T05:13:10;11.13;;;7.88;;
29006;SDS011;16104;48.642;9.008;2022-12-07T05:18:06;10.30;;;7.32;;
29006;SDS011;16104;48.642;9.008;2022-12-07T05:23:02;11.77;;;7.47;;
29006;SDS011;16104;48.642;9.008;2022-12-07T05:27:57;11.18;;;7.03;;
29006;SDS011;16104;48.642;9.008;2022-12-07T05:32:53;8.90;;;5.85;;
29006;SDS011;16104;48.642;9.008;2022-12-07T05:37:49;14.25;;;7.75;;
29006;SDS011;16104;48.642;9.008;2022-12-07T05:42:44;11.20;;;7.97;;
29006;SDS011;16104;48.642;9.008;2022-12-07T05:47:40;14.43;;;8.32;;
29006;SDS011;16104;48.642;9.008;2022-12-07T05:52:35;15.10;;;8.75;;
29006;SDS011;16104;48.642;9.008;2022-12-07T05:57:31;11.32;;;8.07;;
29006;SDS011;16104;48.642;9.008;2022-12-07T06:02:26;12.82;;;7.43;;
29006;SDS011;16104;48.642;9.008;2022-12-07T06:07:22;10.27;;;6.80;;
29006;SDS011;16104;48.642;9.008;2022-12-07T06:12:17;10.00;;;7.35;;
29006;SDS011;16104;48.642;9.008;2022-12-07T06:17:33;10.63;;;7.32;;
29006;SDS011;16104;48.642;9.008;2022-12-07T06:22:28;12.07;;;7.53;;
29006;SDS011;16104;48.642;9.008;2022-12-07T06:27:24;10.38;;;7.63;;
29006;SDS011;16104;48.642;9.008;2022-12-07T06:32:19;11.90;;;8.23;;
29006;SDS011;16104;48.642;9.008;2022-12-07T06:37:15;11.15;;;6.93;;
29006;SDS011;16104;48.642;9.008;2022-12-07T06:42:10;10.82;;;7.80;;
29006;SDS011;16104;48.642;9.008;2022-12-07T06:47:06;10.98;;;7.90;;
29006;SDS011;16104;48.642;9.008;2022-12-07T06:52:02;13.23;;;9.05;;
29006;SDS011;16104;48.642;9.008;2022-12-07T06:56:59;13.02;;;8.00;;
29006;SDS011;16104;48.642;9.008;2022-12-07T07:01:55;13.73;;;8.63;;
29006;SDS011;16104;48.642;9.008;2022-12-07T07:06:50;14.45;;;8.90;;
29006;SDS011;16104;48.642;9.008;2022-12-07T07:11:46;12.43;;;8.57;;
29006;SDS011;16104;48.642;9.008;2022-12-07T07:16:41;11.80;;;8.02;;
29006;SDS011;16104;48.642;9.008;2022-12-07T07:21:37;13.95;;;9.38;;
29006;SDS011;16104;48.642;9.008;2022-12-07T07:26:32;37.03;;;22.65;;
29006;SDS011;16104;48.642;9.008;2022-12-07T07:31:28;39.95;;;20.58;;
29006;SDS011;16104;48.642;9.008;2022-12-07T07:36:23;17.02;;;10.98;;
29006;SDS011;16104;48.642;9.008;2022-12-07T07:41:19;12.88;;;8.68;;
29006;SDS011;16104;48.642;9.008;2022-12-07T07:46:15;16.67;;;10.52;;
29006;SDS011;16104;48.642;9.008;2022-12-07T07:51:10;11.38;;;7.70;;
29006;SDS011;16104;48.642;9.008;2022-12-07T07:56:06;11.98;;;7.10;;
29006;SDS011;16104;48.642;9.008;2022-12-07T08:01:05;9.25;;;6.78;;
29006;SDS011;16104;48.642;9.008;2022-12-07T08:06:02;9.13;;;6.45;;
29006;SDS011;16104;48.642;9.008;2022-12-07T08:10:58;9.15;;;5.97;;
29006;SDS011;16104;48.642;9.008;2022-12-07T08:15:56;9.13;;;6.93;;
29006;SDS011;16104;48.642;9.008;2022-12-07T08:20:58;8.88;;;5.57;;
29006;SDS011;16104;48.642;9.008;2022-12-07T08:25:55;11.75;;;7.47;;
29006;SDS011;16104;48.642;9.008;2022-12-07T08:31:03;12.50;;;7.32;;
29006;SDS011;16104;48.642;9.008;2022-12-07T08:36:00;10.57;;;7.07;;
29006;SDS011;16104;48.642;9.008;2022-12-07T08:46:03;10.60;;;7.07;;
29006;SDS011;16104;48.642;9.008;2022-12-07T08:51:05;11.15;;;7.50;;
29006;SDS011;16104;48.642;9.008;2022-12-07T08:56:02;9.80;;;6.90;;
29006;SDS011;16104;48.642;9.008;2022-12-07T09:00:58;10.88;;;7.50;;
29006;SDS011;16104;48.642;9.008;2022-12-07T09:05:54;10.25;;;7.63;;
29006;SDS011;16104;48.642;9.008;2022-12-07T09:10:49;12.38;;;7.97;;
29006;SDS011;16104;48.642;9.008;2022-12-07T09:15:45;9.98;;;6.63;;
29006;SDS011;16104;48.642;9.008;2022-12-07T09:20:40;9.55;;;6.95;;
29006;SDS011;16104;48.642;9.008;2022-12-07T09:25:36;10.43;;;6.80;;
29006;SDS011;16104;48.642;9.008;2022-12-07T09:30:31;12.73;;;7.13;;
29006;SDS011;16104;48.642;9.008;2022-12-07T09:35:27;9.70;;;6.25;;
29006;SDS011;16104;48.642;9.008;2022-12-07T09:40:22;7.90;;;6.03;;
29006;SDS011;16104;48.642;9.008;2022-12-07T09:45:21;11.32;;;7.90;;
29006;SDS011;16104;48.642;9.008;2022-12-07T09:50:21;13.48;;;8.25;;
29006;SDS011;16104;48.642;9.008;2022-12-07T09:55:24;9.95;;;6.68;;
29006;SDS011;16104;48.642;9.008;2022-12-07T10:00:23;11.13;;;6.70;;
29006;SDS011;16104;48.642;9.008;2022-12-07T10:05:21;10.40;;;6.07;;
29006;SDS011;16104;48.642;9.008;2022-12-07T10:10:24;8.85;;;6.07;;
29006;SDS011;16104;48.642;9.008;2022-12-07T10:15:21;8.73;;;6.70;;
29006;SDS011;16104;48.642;9.008;2022-12-07T10:20:21;10.23;;;6.80;;
29006;SDS011;16104;48.642;9.008;2022-12-07T10:25:19;9.10;;;6.13;;
29006;SDS011;16104;48.642;9.008;2022-12-07T10:30:16;9.43;;;6.35;;
29006;SDS011;16104;48.642;9.008;2022-12-07T10:40:28;9.77;;;6.20;;
29006;SDS011;16104;48.642;9.008;2022-12-07T10:45:28;9.23;;;6.10;;
29006;SDS011;16104;48.642;9.008;2022-12-07T10:55:27;9.75;;;6.00;;
29006;SDS011;16104;48.642;9.008;2022-12-07T11:00:44;9.68;;;4.72;;
29006;SDS011;16104;48.642;9.008;2022-12-07T11:06:12;9.25;;;5.53;;
29006;SDS011;16104;48.642;9.008;2022-12-07T11:11:37;10.25;;;6.03;;
29006;SDS011;16104;48.642;9.008;2022-12-07T11:16:45;11.68;;;6.10;;
29006;SDS011;16104;48.642;9.008;2022-12-07T11:22:06;8.38;;;6.00;;
29006;SDS011;16104;48.642;9.008;2022-12-07T11:32:33;6.15;;;4.95;;
29006;SDS011;16104;48.642;9.008;2022-12-07T11:37:47;7.85;;;5.00;;
29006;SDS011;16104;48.642;9.008;2022-12-07T11:42:49;9.70;;;4.95;;
29006;SDS011;16104;48.642;9.008;2022-12-07T11:48:03;9.18;;;4.80;;
29006;SDS011;16104;48.642;9.008;2022-12-07T11:58:42;10.65;;;5.20;;
29006;SDS011;16104;48.642;9.008;2022-12-07T12:09:02;9.27;;;5.00;;
29006;SDS011;16104;48.642;9.008;2022-12-07T12:19:15;6.85;;;4.57;;
29006;SDS011;16104;48.642;9.008;2022-12-07T12:24:16;6.55;;;4.30;;
29006;SDS011;16104;48.642;9.008;2022-12-07T12:29:26;8.63;;;4.03;;
29006;SDS011;16104;48.642;9.008;2022-12-07T12:34:41;7.15;;;4.28;;
29006;SDS011;16104;48.642;9.008;2022-12-07T12:45:26;7.32;;;4.18;;
29006;SDS011;16104;48.642;9.008;2022-12-07T12:50:23;10.65;;;4.95;;
29006;SDS011;16104;48.642;9.008;2022-12-07T12:55:44;10.20;;;4.50;;
29006;SDS011;16104;48.642;9.008;2022-12-07T13:01:32;5.32;;;3.95;;
29006;SDS011;16104;48.642;9.008;2022-12-07T13:11:34;6.82;;;4.00;;
29006;SDS011;16104;48.642;9.008;2022-12-07T13:16:36;3.95;;;2.70;;
29006;SDS011;16104;48.642;9.008;2022-12-07T13:21:51;5.47;;;2.50;;
29006;SDS011;16104;48.642;9.008;2022-12-07T13:26:46;4.57;;;2.83;;
29006;SDS011;16104;48.642;9.008;2022-12-07T13:36:38;4.10;;;3.13;;
29006;SDS011;16104;48.642;9.008;2022-12-07T13:41:34;5.70;;;3.15;;
29006;SDS011;16104;48.642;9.008;2022-12-07T13:46:41;5.53;;;2.78;;
29006;SDS011;16104;48.642;9.008;2022-12-07T13:52:14;5.97;;;3.47;;
29006;SDS011;16104;48.642;9.008;2022-12-07T13:57:11;7.82;;;3.80;;
29006;SDS011;16104;48.642;9.008;2022-12-07T14:02:17;5.57;;;4.03;;
29006;SDS011;16104;48.642;9.008;2022-12-07T14:12:18;7.15;;;4.60;;
29006;SDS011;16104;48.642;9.008;2022-12-07T14:17:18;6.85;;;4.30;;
29006;SDS011;16104;48.642;9.008;2022-12-07T14:22:19;8.25;;;5.18;;
29006;SDS011;16104;48.642;9.008;2022-12-07T14:27:21;7.32;;;4.00;;
29006;SDS011;16104;48.642;9.008;2022-12-07T14:32:25;5.78;;;3.95;;
29006;SDS011;16104;48.642;9.008;2022-12-07T14:37:25;6.07;;;4.15;;
29006;SDS011;16104;48.642;9.008;2022-12-07T14:42:24;4.35;;;3.72;;
29006;SDS011;16104;48.642;9.008;2022-12-07T14:47:22;6.63;;;3.95;;
29006;SDS011;16104;48.642;9.008;2022-12-07T14:52:23;6.28;;;4.72;;
29006;SDS011;16104;48.642;9.008;2022-12-07T14:57:22;10.02;;;5.15;;
29006;SDS011;16104;48.642;9.008;2022-12-07T15:02:18;8.50;;;5.05;;
29006;SDS011;16104;48.642;9.008;2022-12-07T15:07:20;8.43;;;5.53;;
29006;SDS011;16104;48.642;9.008;2022-12-07T15:12:16;6.53;;;4.88;;
29006;SDS011;16104;48.642;9.008;2022-12-07T15:17:11;9.10;;;4.93;;
29006;SDS011;16104;48.642;9.008;2022-12-07T15:22:08;9.02;;;5.18;;
29006;SDS011;16104;48.642;9.008;2022-12-07T15:27:05;7.10;;;5.18;;
29006;SDS011;16104;48.642;9.008;2022-12-07T15:32:01;14.77;;;5.85;;
29006;SDS011;16104;48.642;9.008;2022-12-07T15:36:57;11.88;;;7.25;;
29006;SDS011;16104;48.642;9.008;2022-12-07T15:41:52;10.45;;;6.32;;
29006;SDS011;16104;48.642;9.008;2022-12-07T15:46:48;8.90;;;5.78;;
29006;SDS011;16104;48.642;9.008;2022-12-07T15:51:44;8.95;;;6.30;;
29006;SDS011;16104;48.642;9.008;2022-12-07T15:56:40;10.57;;;6.15;;
29006;SDS011;16104;48.642;9.008;2022-12-07T16:01:35;9.85;;;6.35;;
29006;SDS011;16104;48.642;9.008;2022-12-07T16:06:31;9.50;;;6.65;;
29006;SDS011;16104;48.642;9.008;2022-12-07T16:11:26;9.90;;;6.85;;
29006;SDS011;16104;48.642;9.008;2022-12-07T16:16:22;10.73;;;6.90;;
29006;SDS011;16104;48.642;9.008;2022-12-07T16:21:17;12.10;;;6.88;;
29006;SDS011;16104;48.642;9.008;2022-12-07T16:26:14;11.20;;;8.13;;
29006;SDS011;16104;48.642;9.008;2022-12-07T16:31:13;11.82;;;7.93;;
29006;SDS011;16104;48.642;9.008;2022-12-07T16:36:10;9.90;;;7.15;;
29006;SDS011;16104;48.642;9.008;2022-12-07T16:41:07;11.00;;;7.35;;
29006;SDS011;16104;48.642;9.008;2022-12-07T16:46:03;11.32;;;7.85;;
29006;SDS011;16104;48.642;9.008;2022-12-07T16:50:59;14.70;;;7.60;;
29006;SDS011;16104;48.642;9.008;2022-12-07T16:55:58;10.15;;;6.72;;
29006;SDS011;16104;48.642;9.008;2022-12-07T17:00:54;11.90;;;8.40;;
29006;SDS011;16104;48.642;9.008;2022-12-07T17:05:50;11.90;;;8.35;;
29006;SDS011;16104;48.642;9.008;2022-12-07T17:10:45;12.00;;;8.35;;
29006;SDS011;16104;48.642;9.008;2022-12-07T17:15:41;11.98;;;7.28;;
29006;SDS011;16104;48.642;9.008;2022-12-07T17:20:36;9.73;;;6.95;;
29006;SDS011;16104;48.642;9.008;2022-12-07T17:25:32;10.25;;;7.15;;
29006;SDS011;16104;48.642;9.008;2022-12-07T17:30:28;12.20;;;8.50;;
29006;SDS011;16104;48.642;9.008;2022-12-07T17:35:23;11.43;;;7.53;;
29006;SDS011;16104;48.642;9.008;2022-12-07T17:40:19;11.27;;;7.45;;
29006;SDS011;16104;48.642;9.008;2022-12-07T17:45:14;11.95;;;7.25;;
29006;SDS011;16104;48.642;9.008;2022-12-07T17:50:10;14.73;;;10.43;;
29006;SDS011;16104;48.642;9.008;2022-12-07T17:55:06;12.88;;;8.80;;
29006;SDS011;16104;48.642;9.008;2022-12-07T18:00:03;10.18;;;7.10;;
29006;SDS011;16104;48.642;9.008;2022-12-07T18:05:00;11.07;;;7.40;;
29006;SDS011;16104;48.642;9.008;2022-12-07T18:09:55;9.32;;;7.07;;
29006;SDS011;16104;48.642;9.008;2022-12-07T18:14:51;10.98;;;6.57;;
29006;SDS011;16104;48.642;9.008;2022-12-07T18:19:48;16.80;;;10.75;;
29006;SDS011;16104;48.642;9.008;2022-12-07T18:24:43;19.75;;;11.57;;
29006;SDS011;16104;48.642;9.008;2022-12-07T18:29:39;12.13;;;7.00;;
29006;SDS011;16104;48.642;9.008;2022-12-07T18:34:34;11.32;;;7.25;;
29006;SDS011;16104;48.642;9.008;2022-12-07T18:39:30;8.85;;;5.88;;
29006;SDS011;16104;48.642;9.008;2022-12-07T18:44:25;12.95;;;8.70;;
29006;SDS011;16104;48.642;9.008;2022-12-07T18:49:21;17.42;;;11.45;;
29006;SDS011;16104;48.642;9.008;2022-12-07T18:54:16;14.50;;;9.57;;
29006;SDS011;16104;48.642;9.008;2022-12-07T18:59:12;22.13;;;12.13;;
29006;SDS011;16104;48.642;9.008;2022-12-07T19:04:27;12.20;;;7.80;;
29006;SDS011;16104;48.642;9.008;2022-12-07T19:09:22;12.25;;;7.90;;
29006;SDS011;16104;48.642;9.008;2022-12-07T19:19:19;13.80;;;8.77;;
29006;SDS011;16104;48.642;9.008;2022-12-07T19:24:16;11.70;;;7.70;;
29006;SDS011;16104;48.642;9.008;2022-12-07T19:29:12;16.65;;;10.65;;
29006;SDS011;16104;48.642;9.008;2022-12-07T19:34:11;14.45;;;8.88;;
29006;SDS011;16104;48.642;9.008;2022-12-07T19:39:12;10.77;;;7.22;;
29006;SDS011;16104;48.642;9.008;2022-12-07T19:44:14;10.50;;;7.22;;
29006;SDS011;16104;48.642;9.008;2022-12-07T19:49:12;10.80;;;7.35;;
29006;SDS011;16104;48.642;9.008;2022-12-07T19:54:10;12.13;;;8.50;;
29006;SDS011;16104;48.642;9.008;2022-12-07T19:59:08;13.88;;;8.70;;
29006;SDS011;16104;48.642;9.008;2022-12-07T20:04:06;10.50;;;7.28;;
29006;SDS011;16104;48.642;9.008;2022-12-07T20:09:06;11.18;;;7.63;;
29006;SDS011;16104;48.642;9.008;2022-12-07T20:14:04;10.80;;;7.57;;
29006;SDS011;16104;48.642;9.008;2022-12-07T20:19:02;12.60;;;8.45;;
29006;SDS011;16104;48.642;9.008;2022-12-07T20:24:01;14.48;;;8.77;;
29006;SDS011;16104;48.642;9.008;2022-12-07T20:28:57;11.75;;;7.68;;
29006;SDS011;16104;48.642;9.008;2022-12-07T20:33:53;10.00;;;7.30;;
29006;SDS011;16104;48.642;9.008;2022-12-07T20:38:50;10.50;;;6.90;;
29006;SDS011;16104;48.642;9.008;2022-12-07T20:43:45;9.23;;;6.55;;
29006;SDS011;16104;48.642;9.008;2022-12-07T20:48:41;9.38;;;6.68;;
29006;SDS011;16104;48.642;9.008;2022-12-07T20:53:36;10.95;;;6.78;;
29006;SDS011;16104;48.642;9.008;2022-12-07T20:58:32;10.05;;;7.13;;
29006;SDS011;16104;48.642;9.008;2022-12-07T21:03:28;12.25;;;7.28;;
29006;SDS011;16104;48.642;9.008;2022-12-07T21:08:23;11.77;;;8.23;;
29006;SDS011;16104;48.642;9.008;2022-12-07T21:13:19;12.88;;;8.98;;
29006;SDS011;16104;48.642;9.008;2022-12-07T21:18:14;13.20;;;8.85;;
29006;SDS011;16104;48.642;9.008;2022-12-07T21:23:10;12.20;;;7.95;;
29006;SDS011;16104;48.642;9.008;2022-12-07T21:28:05;12.65;;;8.77;;
29006;SDS011;16104;48.642;9.008;2022-12-07T21:33:01;12.23;;;8.48;;
29006;SDS011;16104;48.642;9.008;2022-12-07T21:37:56;12.38;;;7.82;;
29006;SDS011;16104;48.642;9.008;2022-12-07T21:42:52;10.90;;;7.53;;
29006;SDS011;16104;48.642;9.008;2022-12-07T21:47:48;13.00;;;8.35;;
29006;SDS011;16104;48.642;9.008;2022-12-07T21:52:43;12.85;;;8.88;;
29006;SDS011;16104;48.642;9.008;2022-12-07T21:57:39;12.98;;;8.55;;
29006;SDS011;16104;48.642;9.008;2022-12-07T22:02:34;11.35;;;7.85;;
29006;SDS011;16104;48.642;9.008;2022-12-07T22:07:30;11.38;;;7.68;;
29006;SDS011;16104;48.642;9.008;2022-12-07T22:12:27;9.38;;;6.85;;
29006;SDS011;16104;48.642;9.008;2022-12-07T22:17:22;12.02;;;8.00;;
29006;SDS011;16104;48.642;9.008;2022-12-07T22:22:18;11.70;;;8.32;;
29006;SDS011;16104;48.642;9.008;2022-12-07T22:27:13;15.32;;;9.07;;
29006;SDS011;16104;48.642;9.008;2022-12-07T22:32:09;12.55;;;8.80;;
29006;SDS011;16104;48.642;9.008;2022-12-07T22:37:05;12.07;;;8.20;;
29006;SDS011;16104;48.642;9.008;2022-12-07T22:42:00;13.77;;;9.02;;
29006;SDS011;16104;48.642;9.008;2022-12-07T22:46:56;13.70;;;8.80;;
29006;SDS011;16104;48.642;9.008;2022-12-07T22:51:51;14.88;;;8.90;;
29006;SDS011;16104;48.642;9.008;2022-12-07T22:56:47;13.30;;;8.73;;
29006;SDS011;16104;48.642;9.008;2022-12-07T23:01:43;13.70;;;8.30;;
29006;SDS011;16104;48.642;9.008;2022-12-07T23:06:38;10.98;;;7.82;;
29006;SDS011;16104;48.642;9.008;2022-12-07T23:11:35;11.40;;;7.72;;
29006;SDS011;16104;48.642;9.008;2022-12-07T23:16:52;12.95;;;8.23;;
29006;SDS011;16104;48.642;9.008;2022-12-07T23:21:47;12.82;;;7.78;;
29006;SDS011;16104;48.642;9.008;2022-12-07T23:26:43;12.73;;;7.95;;
29006;SDS011;16104;48.642;9.008;2022-12-07T23:31:40;12.68;;;8.10;;
29006;SDS011;16104;48.642;9.008;2022-12-07T23:36:35;13.10;;;8.38;;
29006;SDS011;16104;48.642;9.008;2022-12-07T23:41:31;11.27;;;6.72;;
29006;SDS011;16104;48.642;9.008;2022-12-07T23:46:29;11.52;;;7.90;;
29006;SDS011;16104;48.642;9.008;2022-12-07T23:51:25;10.95;;;7.20;;
29006;SDS011;16104;48.642;9.008;2022-12-07T23:56:22;13.48;;;8.43;;
